Portada
METAR-TAF:

METAR-TAF

Aeropuertos :

Aeropuerto de Szczecin-Goleniów "Solidarność"

Szczecin, Polonia

latitud: 53-35N, longitud: 014-54E, altitud: 1 m

Observación

El informe se hizo hace 23 minutos, a las 03:00 UTC
Viento 5 kt del norte-noreste
Temperatura 9°C
Humedad 87%
Presión 1024 hPa
Visibilidad 10 km o más
sin nubes por debajo de 1500 m y sin presencia de cumulonimbus.

METAR: EPSC 010300Z 02005KT CAVOK 09/07 Q1024

Hora: 05:23 (03:23 UTC)

Pronóstico

El informe se hizo hace 3 horas y 53 minutos, a las 23:30 UTC
Pronóstico válido del 01 a las 00 UTC al 01 a las 24 UTC
Viento 6 kt del norte-noreste
Visibilidad 10 km o más
sin nubes por debajo de 1500 m y sin presencia de cumulonimbus.
Temporalmente
del 01 a las 08 UTC al 01 a las 16 UTC
Viento 15 kt del norte-noreste con ráfagas de 25 kt

TAF: EPSC 312330Z 0100/0124 02006KT CAVOK TEMPO 0108/0116 03015G25KT

Observaciones y pronósticos meteorológicos de más de 4000 aeropuertos (mensajes METAR y TAF).

Los puntos amarillos y rojos representan las estaciones disponibles.

Ponga el ratón en el punto deseado para ver el nombre de la estación.

Haga clic para ver las observaciones y los pronósticos meteorológicos.

Para cambiar el mapa : haga clic en los botones verdes con una cruz de color negro para hacer un zoom, en el botón verde con un guión para alejar o en las flechas verdes para mapas adyacentes.


METAR-TAF: